IN-0066 weather

Madhubani Airport
Bihar, India

Public forecast

Using degrees Celsius for public forecast. Weather courtesy of forecast.io.

METAR (pilot weather report)

Closest report is Lok Nayak Jayaprakash Airport, 68.7 nm (127.2 km) SW. Retrieved 2018/10/23 04:30 UTC (10 minutes ago):

VEPT 230430Z 00000KT 2500 HZ NSC 29/21 Q1014 BECMG 3000 HZ

TAF (pilot weather forecast)

Forecast is more than 12 hours old.

Closest forecast is Lok Nayak Jayaprakash Airport, 68.7 nm (127.2 km) SW. Retrieved 2018/10/22 00:39 UTC (1 day ago):

TAF VEPT 222300Z 2300/2406 00000KT 1500 BR NSC BECMG 2304/2306 00000KT 3000 HZ NSC BECMG 2308/2310 27005KT 5000 HZ SCT100 BECMG 2314/2316 00000KT 4000 HZ BECMG 2323/2401 00000KT 1600 BR BECMG 2404/2406 12005KT 4000 HZ